Time;durP1;ratioP1;P1;durP2;ratioP2;P2;SDS_P1;SDS_P2;PMS_P1;PMS_P2;Temp;Humidity;BMP_temperature;BMP_pressure;BME280_temperature;BME280_humidity;BME280_pressure;Samples;Min_cycle;Max_cycle;Signal;HPM_P1;HPM_P2
2022/03/14 12:06:45;;;;;;;13.75;10.00;;;8.70;99.90;;;;;;5110270;27;20555;-74
2022/03/14 12:09:33;;;;;;;15.10;8.25;;;8.60;99.90;;;;;;5109731;28;20172;-76
2022/03/14 12:12:19;;;;;;;8.32;6.88;;;8.60;99.90;;;;;;5110879;28;20184;-75
2022/03/14 12:14:48;;;;;;;10.90;7.97;;;8.70;99.90;;;;;;5109671;28;20256;-75
2022/03/14 12:17:17;;;;;;;12.68;8.75;;;8.70;99.90;;;;;;5110000;28;20207;-75
2022/03/14 12:19:52;;;;;;;10.85;7.25;;;8.80;99.90;;;;;;5110182;28;20168;-75
2022/03/14 12:22:30;;;;;;;13.10;8.00;;;8.80;99.90;;;;;;5110959;28;20156;-75
2022/03/14 12:24:56;;;;;;;13.43;7.97;;;8.90;99.90;;;;;;5111569;28;20168;-75
2022/03/14 12:27:33;;;;;;;11.77;8.05;;;8.80;99.90;;;;;;5109994;28;20282;-75
2022/03/14 12:33:37;;;;;;;13.45;7.38;;;9.00;99.90;;;;;;5111138;28;20259;-74
2022/03/14 12:36:22;;;;;;;13.85;7.03;;;8.90;99.90;;;;;;5109958;28;20206;-74
2022/03/14 12:39:21;;;;;;;14.45;7.22;;;8.80;99.90;;;;;;5090461;28;20172;-75
2022/03/14 12:41:47;;;;;;;9.75;6.38;;;8.80;99.90;;;;;;5092680;28;20192;-74
2022/03/14 12:44:20;;;;;;;12.27;7.10;;;8.70;99.90;;;;;;5093257;28;20538;-74
2022/03/14 12:46:48;;;;;;;11.65;7.20;;;8.60;99.90;;;;;;5093282;28;20192;-75
2022/03/14 12:49:26;;;;;;;11.05;8.25;;;8.60;99.90;;;;;;5092663;28;20197;-74
2022/03/14 12:52:12;;;;;;;12.60;6.93;;;8.50;99.90;;;;;;5092652;28;20187;-75
2022/03/14 12:54:38;;;;;;;14.52;7.35;;;8.50;99.90;;;;;;5092051;28;20215;-75
2022/03/14 12:57:05;;;;;;;12.90;7.70;;;8.40;99.90;;;;;;5092267;28;20242;-74
2022/03/14 12:59:32;;;;;;;9.38;7.38;;;8.40;99.90;;;;;;5092322;28;20179;-75
2022/03/14 13:01:58;;;;;;;15.38;7.35;;;8.30;99.90;;;;;;5092266;28;20304;-74
2022/03/14 13:04:24;;;;;;;13.80;7.65;;;8.40;99.90;;;;;;5092020;28;20256;-75
2022/03/14 13:06:50;;;;;;;10.18;7.30;;;8.40;99.90;;;;;;5091891;28;20204;-75
2022/03/14 13:09:27;;;;;;;13.52;7.50;;;8.60;99.90;;;;;;5110057;28;20173;-74
2022/03/14 13:11:57;;;;;;;14.60;7.05;;;8.80;99.90;;;;;;5110023;28;20164;-74
2022/03/14 13:14:23;;;;;;;14.00;6.63;;;9.10;99.90;;;;;;5092456;28;20200;-74
2022/03/14 13:16:52;;;;;;;13.02;7.13;;;9.30;99.90;;;;;;5101979;28;20265;-74
2022/03/14 13:19:19;;;;;;;9.85;6.38;;;9.60;99.90;;;;;;5078528;28;20173;-75
2022/03/14 13:21:47;;;;;;;9.13;6.63;;;9.80;99.90;;;;;;5078621;28;20177;-74
2022/03/14 13:24:13;;;;;;;10.93;6.93;;;9.80;99.90;;;;;;5078132;28;20197;-74
2022/03/14 13:26:44;;;;;;;11.52;6.18;;;10.00;99.90;;;;;;5078219;28;20276;-75
2022/03/14 13:29:10;;;;;;;12.70;6.45;;;10.00;99.90;;;;;;5096453;28;20525;-75
2022/03/14 13:31:41;;;;;;;12.43;9.13;;;10.30;99.90;;;;;;5078366;28;20177;-75
2022/03/14 13:34:20;;;;;;;13.35;8.48;;;10.30;99.90;;;;;;5096715;28;20172;-76
2022/03/14 13:36:53;;;;;;;12.27;9.70;;;10.30;99.90;;;;;;5078763;28;20193;-76
2022/03/14 13:39:47;;;;;;;14.82;10.32;;;10.30;99.90;;;;;;5077507;28;20161;-75
2022/03/14 13:42:13;;;;;;;16.75;13.93;;;10.30;99.90;;;;;;5078781;28;20165;-75
2022/03/14 13:44:38;;;;;;;20.27;15.18;;;10.30;99.90;;;;;;5077917;28;20184;-75
2022/03/14 13:47:04;;;;;;;15.02;11.93;;;10.20;99.90;;;;;;5078013;28;20667;-75
2022/03/14 13:49:31;;;;;;;13.70;10.63;;;10.20;99.90;;;;;;5095772;28;20180;-75
2022/03/14 13:51:58;;;;;;;15.48;11.55;;;10.30;99.90;;;;;;5077606;28;20219;-75
2022/03/14 13:54:34;;;;;;;15.40;8.95;;;10.20;99.90;;;;;;5077412;28;20197;-75
2022/03/14 13:57:03;;;;;;;12.07;7.68;;;10.10;99.90;;;;;;5077553;28;20200;-75
2022/03/14 13:59:40;;;;;;;9.43;6.90;;;10.00;99.90;;;;;;5095647;28;20153;-74
2022/03/14 14:02:14;;;;;;;13.13;8.90;;;10.10;99.90;;;;;;5077356;28;20646;-74
2022/03/14 14:04:43;;;;;;;18.42;14.05;;;10.20;99.90;;;;;;5095568;28;20270;-74
2022/03/14 14:07:29;;;;;;;17.25;10.25;;;10.30;99.90;;;;;;5077320;28;20200;-74
2022/03/14 14:09:56;;;;;;;13.52;9.93;;;10.40;99.90;;;;;;5095204;28;20601;-74
2022/03/14 14:12:26;;;;;;;12.82;10.48;;;10.70;99.90;;;;;;5095243;28;20165;-75
2022/03/14 14:14:58;;;;;;;10.35;8.55;;;10.60;99.90;;;;;;5077565;28;20575;-75
2022/03/14 14:17:34;;;;;;;13.88;8.50;;;10.50;99.90;;;;;;5077304;28;20566;-76
2022/03/14 14:20:19;;;;;;;16.45;13.50;;;10.60;99.90;;;;;;5094749;28;20653;-76
2022/03/14 14:22:53;;;;;;;17.35;11.80;;;10.60;99.90;;;;;;5095174;28;20169;-74
2022/03/14 14:25:19;;;;;;;15.07;9.18;;;10.60;99.90;;;;;;5077206;28;20355;-76
2022/03/14 14:27:59;;;;;;;16.92;12.35;;;10.50;99.90;;;;;;5076424;28;20192;-75
2022/03/14 14:30:37;;;;;;;32.60;23.13;;;10.40;99.90;;;;;;5076917;28;20172;-76
2022/03/14 14:33:18;;;;;;;32.05;21.60;;;10.40;99.90;;;;;;5077094;28;20169;-75
2022/03/14 14:35:43;;;;;;;28.25;18.98;;;10.30;99.90;;;;;;5077008;28;20242;-76
2022/03/14 14:38:10;;;;;;;41.17;26.48;;;10.20;99.90;;;;;;5094715;28;20265;-75
2022/03/14 14:40:40;;;;;;;49.67;13.23;;;10.10;99.90;;;;;;5076774;28;20181;-75
2022/03/14 14:43:06;;;;;;;18.88;8.00;;;10.10;99.90;;;;;;5076626;28;20271;-75
2022/03/14 14:45:32;;;;;;;36.65;19.75;;;10.10;99.90;;;;;;5094692;28;20264;-74
2022/03/14 14:47:58;;;;;;;30.92;14.27;;;10.00;99.90;;;;;;5076315;28;20282;-76
2022/03/14 14:50:24;;;;;;;115.00;13.27;;;10.00;99.90;;;;;;5094806;28;20173;-76
2022/03/14 14:52:50;;;;;;;40.58;12.10;;;9.90;99.90;;;;;;5078450;28;20243;-77
2022/03/14 14:55:16;;;;;;;20.08;13.88;;;10.00;99.90;;;;;;5093834;28;20716;-78
2022/03/14 14:57:41;;;;;;;19.67;14.73;;;10.00;99.90;;;;;;5093371;28;20201;-75
2022/03/14 15:00:08;;;;;;;39.88;28.10;;;10.10;99.90;;;;;;5093513;28;20199;-81
2022/03/14 15:02:34;;;;;;;29.05;19.52;;;10.10;99.90;;;;;;5094429;28;20164;-75
2022/03/14 15:05:00;;;;;;;13.25;9.52;;;10.20;99.90;;;;;;5094101;28;20275;-75
2022/03/14 15:07:26;;;;;;;12.85;5.93;;;10.20;99.90;;;;;;5075787;28;20200;-76
2022/03/14 15:09:52;;;;;;;8.48;5.38;;;10.10;99.90;;;;;;5076427;28;20219;-76
2022/03/14 15:12:19;;;;;;;11.38;7.53;;;10.00;99.90;;;;;;5076808;28;20181;-78
2022/03/14 15:14:45;;;;;;;16.08;10.65;;;9.90;99.90;;;;;;5076619;28;20196;-75
2022/03/14 15:17:11;;;;;;;16.20;11.93;;;9.90;99.90;;;;;;5076283;28;20293;-75
2022/03/14 15:19:37;;;;;;;26.88;21.42;;;9.90;99.90;;;;;;5076253;28;20196;-75
2022/03/14 15:22:04;;;;;;;11.90;8.85;;;9.90;99.90;;;;;;5076820;28;20200;-75
2022/03/14 15:24:30;;;;;;;12.27;9.82;;;9.90;99.90;;;;;;5094705;28;20527;-75
2022/03/14 15:26:56;;;;;;;17.90;13.73;;;10.00;99.90;;;;;;5076402;28;20203;-76
2022/03/14 15:29:22;;;;;;;12.43;9.30;;;10.00;99.90;;;;;;5076331;28;20585;-74
2022/03/14 15:31:50;;;;;;;19.85;14.80;;;10.10;99.90;;;;;;5076359;28;20177;-74
2022/03/14 15:34:16;;;;;;;12.05;8.88;;;10.20;99.90;;;;;;5075647;28;20188;-75
2022/03/14 15:36:42;;;;;;;9.73;6.40;;;10.10;99.90;;;;;;5075978;28;20189;-74
2022/03/14 15:39:08;;;;;;;9.68;6.10;;;10.10;99.90;;;;;;5075567;28;20211;-75
2022/03/14 15:41:35;;;;;;;8.50;6.20;;;10.10;99.90;;;;;;5075911;28;20206;-75
2022/03/14 15:44:01;;;;;;;6.70;5.35;;;10.10;99.90;;;;;;5075769;28;20187;-75
2022/03/14 15:46:28;;;;;;;9.38;5.40;;;10.10;99.90;;;;;;5076207;28;20197;-75
2022/03/14 15:48:53;;;;;;;6.72;4.82;;;10.10;99.90;;;;;;5075139;28;20203;-75
2022/03/14 15:51:20;;;;;;;6.45;4.68;;;10.10;99.90;;;;;;5075456;28;20209;-76
2022/03/14 15:53:46;;;;;;;6.95;5.65;;;10.10;99.90;;;;;;5074838;28;20185;-75
2022/03/14 15:56:11;;;;;;;6.97;5.13;;;10.10;99.90;;;;;;5074570;28;20625;-76
2022/03/14 15:58:38;;;;;;;8.93;6.07;;;10.00;99.90;;;;;;5073574;28;20169;-75
2022/03/14 16:01:03;;;;;;;9.93;6.80;;;10.00;99.90;;;;;;5074793;28;20172;-75
2022/03/14 16:03:29;;;;;;;34.17;21.20;;;9.80;99.90;;;;;;5075302;28;20674;-75
2022/03/14 16:05:55;;;;;;;21.83;12.90;;;9.80;99.90;;;;;;5075145;28;20185;-74
2022/03/14 16:08:22;;;;;;;17.95;10.75;;;9.80;99.90;;;;;;5075018;28;20291;-74
2022/03/14 16:10:49;;;;;;;16.77;10.73;;;9.80;99.90;;;;;;5075387;28;20169;-76
2022/03/14 16:13:15;;;;;;;13.15;8.13;;;9.70;99.90;;;;;;5075229;28;20229;-76
2022/03/14 16:15:41;;;;;;;6.82;5.65;;;9.60;99.90;;;;;;5075416;28;20723;-76
2022/03/14 16:18:07;;;;;;;8.00;5.07;;;9.50;99.90;;;;;;5077800;28;20295;-76
2022/03/14 16:20:34;;;;;;;10.18;6.97;;;9.40;99.90;;;;;;5092297;28;20199;-76
2022/03/14 16:23:00;;;;;;;9.10;7.28;;;9.40;99.90;;;;;;5092124;28;20272;-74
2022/03/14 16:25:26;;;;;;;8.20;5.70;;;9.30;99.90;;;;;;5093131;28;20169;-74
2022/03/14 16:27:53;;;;;;;7.72;5.15;;;9.20;99.90;;;;;;5092204;28;20207;-74
2022/03/14 16:30:20;;;;;;;7.20;5.03;;;9.20;99.90;;;;;;5093334;28;20208;-75
2022/03/14 16:32:46;;;;;;;5.55;4.65;;;9.20;99.90;;;;;;5091931;28;20191;-75
2022/03/14 16:35:15;;;;;;;9.60;5.18;;;9.20;99.90;;;;;;5090664;28;20280;-75
2022/03/14 16:37:41;;;;;;;8.95;4.78;;;9.10;99.90;;;;;;5074587;28;20283;-75
2022/03/14 16:40:09;;;;;;;8.15;4.60;;;9.10;99.90;;;;;;5075080;28;20165;-74
2022/03/14 16:42:37;;;;;;;6.60;4.60;;;9.10;99.90;;;;;;5075645;28;20169;-74
2022/03/14 16:45:03;;;;;;;7.18;4.68;;;9.10;99.90;;;;;;5074961;28;20230;-75
2022/03/14 16:47:28;;;;;;;6.82;4.80;;;9.10;99.90;;;;;;5075298;28;20192;-76
2022/03/14 16:49:54;;;;;;;6.95;4.80;;;9.10;99.90;;;;;;5093010;28;20177;-76
2022/03/14 16:52:21;;;;;;;7.20;4.78;;;9.10;99.90;;;;;;5075908;28;20183;-75
2022/03/14 16:54:47;;;;;;;8.68;5.55;;;9.00;99.90;;;;;;5078492;28;20287;-76
2022/03/14 16:57:13;;;;;;;8.73;5.30;;;8.90;99.90;;;;;;5077913;28;20251;-74
2022/03/14 16:59:50;;;;;;;10.95;6.18;;;8.80;99.90;;;;;;5078485;28;20636;-74
2022/03/14 17:02:55;;;;;;;10.38;5.20;;;8.70;99.90;;;;;;5078559;28;20295;-75
2022/03/14 17:05:21;;;;;;;8.93;5.30;;;8.60;99.90;;;;;;5077214;28;20275;-75
2022/03/14 17:07:46;;;;;;;9.57;4.93;;;8.40;99.90;;;;;;5077659;28;20231;-75
2022/03/14 17:10:35;;;;;;;5.90;4.57;;;8.40;99.90;;;;;;5077485;28;20208;-75
2022/03/14 17:12:59;;;;;;;6.75;4.65;;;8.30;99.90;;;;;;5096551;28;20176;-75
2022/03/14 17:15:25;;;;;;;5.97;4.38;;;8.20;99.90;;;;;;5078214;28;20200;-75
2022/03/14 17:17:56;;;;;;;9.40;4.95;;;8.20;99.90;;;;;;5078597;28;20197;-75
2022/03/14 17:20:31;;;;;;;7.95;4.40;;;8.10;99.90;;;;;;5077947;28;20252;-75
2022/03/14 17:23:06;;;;;;;9.50;6.72;;;8.10;99.90;;;;;;5095784;28;20183;-76
2022/03/14 17:25:33;;;;;;;6.57;5.30;;;8.10;99.90;;;;;;5096420;28;20157;-76
2022/03/14 17:27:58;;;;;;;9.60;5.32;;;7.90;99.90;;;;;;5078639;28;20224;-76
2022/03/14 17:30:25;;;;;;;6.93;5.07;;;7.90;99.90;;;;;;5078278;28;20202;-76
2022/03/14 17:32:50;;;;;;;7.10;5.20;;;7.80;99.90;;;;;;5096245;28;20173;-75
2022/03/14 17:35:16;;;;;;;5.65;4.70;;;7.80;99.90;;;;;;5077801;28;20208;-75
2022/03/14 17:37:42;;;;;;;6.50;4.80;;;7.70;99.90;;;;;;5078140;28;20196;-74
2022/03/14 17:40:19;;;;;;;8.95;5.00;;;7.60;99.90;;;;;;5078156;28;20177;-76
2022/03/14 17:42:50;;;;;;;6.38;4.95;;;7.50;99.90;;;;;;5078439;28;20191;-74
2022/03/14 17:45:35;;;;;;;14.88;10.15;;;7.40;99.90;;;;;;5078039;28;20180;-75
2022/03/14 17:48:02;;;;;;;17.48;12.55;;;7.30;99.90;;;;;;5095908;28;20200;-74
2022/03/14 17:50:29;;;;;;;19.73;13.00;;;7.10;99.90;;;;;;5078266;28;20183;-76
2022/03/14 17:52:55;;;;;;;17.65;12.65;;;7.10;99.90;;;;;;5095696;28;20240;-76
2022/03/14 17:55:39;;;;;;;21.33;14.07;;;7.10;99.90;;;;;;5077915;28;20254;-76
2022/03/14 17:58:05;;;;;;;21.50;14.80;;;6.90;99.90;;;;;;5095673;28;20196;-75
2022/03/14 18:00:44;;;;;;;143.38;67.13;;;6.80;99.90;;;;;;5095735;28;20169;-75
2022/03/14 18:03:10;;;;;;;69.80;32.85;;;6.60;99.90;;;;;;5077472;28;20180;-75
2022/03/14 18:05:38;;;;;;;93.72;44.45;;;6.50;99.90;;;;;;5095385;28;20192;-74
2022/03/14 18:08:04;;;;;;;54.20;29.60;;;6.40;99.90;;;;;;5095398;28;20195;-75
2022/03/14 18:11:24;;;;;;;29.60;16.48;;;6.30;99.90;;;;;;5095745;28;20238;-75
2022/03/14 18:14:32;;;;;;;19.92;13.40;;;6.10;99.90;;;;;;5095522;28;20248;-75
2022/03/14 18:16:57;;;;;;;21.83;15.83;;;6.00;99.90;;;;;;5077204;28;20207;-76
2022/03/14 18:19:28;;;;;;;27.93;19.17;;;6.00;99.90;;;;;;5077354;28;20180;-76
2022/03/14 18:21:55;;;;;;;32.60;22.93;;;6.00;99.90;;;;;;5095336;28;20249;-76
2022/03/14 18:24:21;;;;;;;22.13;17.70;;;5.90;99.90;;;;;;5077798;28;20203;-77
2022/03/14 18:26:51;;;;;;;28.20;16.77;;;5.80;99.90;;;;;;5077125;28;20201;-77
2022/03/14 18:29:16;;;;;;;34.30;19.07;;;5.70;99.90;;;;;;5095584;28;20157;-77
2022/03/14 18:31:42;;;;;;;28.57;19.30;;;5.70;99.90;;;;;;5095560;28;20176;-78
2022/03/14 18:34:11;;;;;;;44.83;25.27;;;5.80;99.90;;;;;;5077588;28;20244;-78
2022/03/14 18:36:37;;;;;;;37.77;28.43;;;5.80;99.90;;;;;;5077087;28;20204;-76
2022/03/14 18:39:03;;;;;;;31.43;26.10;;;5.60;99.90;;;;;;5095203;28;20181;-76
2022/03/14 18:41:29;;;;;;;47.07;32.10;;;5.30;99.90;;;;;;5094863;28;20168;-75
2022/03/14 18:43:54;;;;;;;20.47;15.17;;;5.20;99.90;;;;;;5077576;28;20179;-76
2022/03/14 18:47:06;;;;;;;34.00;22.20;;;5.30;99.90;;;;;;5076874;28;20187;-76
2022/03/14 18:49:31;;;;;;;96.50;57.23;;;5.30;99.90;;;;;;5094694;28;20243;-75
2022/03/14 18:51:57;;;;;;;98.80;59.03;;;5.40;99.90;;;;;;5076309;28;20218;-75
2022/03/14 18:54:39;;;;;;;98.53;61.70;;;5.30;99.90;;;;;;5076287;28;20188;-76
2022/03/14 18:57:04;;;;;;;178.07;113.13;;;5.30;99.90;;;;;;5077056;28;20197;-75
2022/03/14 18:59:30;;;;;;;105.70;69.40;;;5.20;99.90;;;;;;5076428;28;20209;-75
2022/03/14 19:01:58;;;;;;;116.17;77.10;;;5.10;99.90;;;;;;5076246;28;20177;-75
2022/03/14 19:04:49;;;;;;;198.73;118.00;;;5.10;99.90;;;;;;5076281;28;20192;-75
2022/03/14 19:07:15;;;;;;;115.80;72.13;;;4.90;99.90;;;;;;5076295;28;20208;-77
2022/03/14 19:13:03;;;;;;;68.83;45.73;;;4.80;99.90;;;;;;5094256;28;20599;-77
2022/03/14 19:15:29;;;;;;;28.17;19.37;;;4.70;99.90;;;;;;5075966;28;20204;-76
2022/03/14 19:17:55;;;;;;;32.47;21.77;;;4.70;99.90;;;;;;5077344;28;20189;-76
2022/03/14 19:20:21;;;;;;;17.67;10.27;;;4.60;99.90;;;;;;5077316;28;20176;-77
2022/03/14 19:22:47;;;;;;;18.07;14.03;;;4.50;99.90;;;;;;5076169;28;20238;-77
2022/03/14 19:25:13;;;;;;;25.57;15.93;;;4.50;99.90;;;;;;5076962;28;20180;-77
2022/03/14 19:27:40;;;;;;;21.93;14.20;;;4.30;99.90;;;;;;5075615;28;20293;-75
2022/03/14 19:30:07;;;;;;;14.57;8.57;;;4.30;99.90;;;;;;5075556;28;20225;-75
2022/03/14 19:32:34;;;;;;;18.47;14.23;;;4.20;99.90;;;;;;5093702;28;20173;-76
2022/03/14 19:35:00;;;;;;;21.07;11.00;;;4.30;99.90;;;;;;5076019;28;20209;-76
2022/03/14 19:37:28;;;;;;;74.43;33.97;;;4.30;99.90;;;;;;5075647;28;20664;-76
2022/03/14 19:39:53;;;;;;;28.10;16.00;;;4.20;99.90;;;;;;5075811;28;20260;-76
2022/03/14 19:42:21;;;;;;;33.27;18.47;;;4.10;99.90;;;;;;5075713;28;20208;-76
2022/03/14 19:44:47;;;;;;;15.90;10.30;;;4.10;99.90;;;;;;5093732;28;20187;-76
2022/03/14 19:47:13;;;;;;;14.10;8.80;;;3.90;99.90;;;;;;5075581;28;20205;-76
2022/03/14 19:50:08;;;;;;;10.77;8.43;;;4.00;99.90;;;;;;5075658;28;20192;-76
2022/03/14 19:52:34;;;;;;;9.00;6.43;;;3.90;99.90;;;;;;5076573;28;20173;-76
2022/03/14 19:55:03;;;;;;;9.40;6.53;;;4.00;99.90;;;;;;5075530;28;20208;-76
2022/03/14 19:57:29;;;;;;;12.43;7.00;;;4.20;99.90;;;;;;5076041;28;20227;-76
2022/03/14 19:59:55;;;;;;;9.13;5.80;;;4.20;99.90;;;;;;5094113;28;20173;-76
2022/03/14 20:02:22;;;;;;;7.97;6.03;;;4.20;99.90;;;;;;5075589;28;20184;-76
2022/03/14 20:04:50;;;;;;;9.10;5.40;;;4.20;99.90;;;;;;5075508;28;20187;-76
2022/03/14 20:07:17;;;;;;;11.20;8.00;;;4.20;99.90;;;;;;5075231;28;20223;-76
2022/03/14 20:09:43;;;;;;;19.20;10.50;;;4.10;99.90;;;;;;5075763;28;20169;-76
2022/03/14 20:12:08;;;;;;;22.50;13.17;;;4.00;99.90;;;;;;5093508;28;20264;-76
2022/03/14 20:14:38;;;;;;;22.23;14.67;;;4.00;99.90;;;;;;5075358;28;20172;-76
2022/03/14 20:17:07;;;;;;;94.27;42.37;;;4.00;99.90;;;;;;5077068;28;20216;-76
2022/03/14 20:19:34;;;;;;;44.07;24.23;;;3.90;99.90;;;;;;5070875;28;20189;-75
2022/03/14 20:22:02;;;;;;;66.87;33.70;;;3.80;99.90;;;;;;5064633;28;20180;-76
2022/03/14 20:24:31;;;;;;;103.60;49.30;;;3.80;99.90;;;;;;5071928;28;20276;-75
2022/03/14 20:27:16;;;;;;;45.63;24.97;;;3.80;99.90;;;;;;5070897;28;20288;-76
2022/03/14 20:29:49;;;;;;;28.97;16.43;;;3.70;99.90;;;;;;5067662;28;20173;-76
2022/03/14 20:32:29;;;;;;;31.43;16.17;;;3.70;99.90;;;;;;5072042;28;20173;-75
2022/03/14 20:34:56;;;;;;;33.63;19.60;;;3.70;99.90;;;;;;5081112;28;20201;-75
2022/03/14 20:37:26;;;;;;;38.43;21.93;;;3.70;99.90;;;;;;5102407;28;20193;-74
2022/03/14 20:39:54;;;;;;;26.90;14.80;;;3.80;99.90;;;;;;5083562;28;20173;-75
2022/03/14 20:42:21;;;;;;;52.03;25.83;;;3.70;99.90;;;;;;5078870;28;20536;-75
2022/03/14 20:44:57;;;;;;;29.50;17.00;;;3.80;99.90;;;;;;5060166;28;20186;-75
2022/03/14 20:51:03;;;;;;;21.60;11.97;;;3.80;99.90;;;;;;5077172;28;20156;-75
2022/03/14 20:53:52;;;;;;;32.37;20.50;;;3.80;99.90;;;;;;5078417;28;20212;-75
2022/03/14 20:56:18;;;;;;;61.83;37.57;;;3.70;99.90;;;;;;5097117;28;20221;-76
2022/03/14 20:59:12;;;;;;;40.17;23.70;;;3.70;99.90;;;;;;5097525;28;20176;-76
2022/03/14 21:03:03;;;;;;;29.27;18.50;;;3.40;99.90;;;;;;5079428;28;20173;-76
2022/03/14 21:04:41;;;;;;;25.23;14.00;;;3.30;99.90;;;;;;5097087;28;20203;-75
2022/03/14 21:07:19;;;;;;;14.67;11.10;;;3.20;99.90;;;;;;5064108;28;20225;-75
2022/03/14 21:09:55;;;;;;;18.37;10.37;;;3.30;99.90;;;;;;5059072;28;20676;-76
2022/03/14 21:12:31;;;;;;;12.77;9.17;;;3.30;99.90;;;;;;5058910;28;20235;-76
2022/03/14 21:14:56;;;;;;;17.07;11.73;;;3.40;99.90;;;;;;5058279;28;20208;-76
2022/03/14 21:17:46;;;;;;;12.43;8.63;;;3.30;99.90;;;;;;5076404;28;20194;-76
2022/03/14 21:20:13;;;;;;;12.00;7.17;;;3.20;99.90;;;;;;5058884;28;20172;-76
2022/03/14 21:22:45;;;;;;;9.00;7.63;;;3.30;99.90;;;;;;5075720;28;20169;-76
2022/03/14 21:25:41;;;;;;;12.53;10.60;;;3.20;99.90;;;;;;5058730;28;20189;-78
2022/03/14 21:28:06;;;;;;;10.17;6.53;;;3.10;99.90;;;;;;5058313;28;20208;-76
2022/03/14 21:30:34;;;;;;;7.83;5.63;;;2.90;99.90;;;;;;5076444;28;20177;-76
2022/03/14 21:33:01;;;;;;;7.27;5.77;;;2.70;99.90;;;;;;5075947;28;20182;-78
2022/03/14 21:36:03;;;;;;;11.00;8.33;;;2.80;99.90;;;;;;5057809;28;20209;-76
2022/03/14 21:38:36;;;;;;;9.10;6.83;;;2.70;99.90;;;;;;5057602;28;20193;-76
2022/03/14 21:41:03;;;;;;;7.67;6.17;;;2.80;99.90;;;;;;5058007;28;20178;-75
2022/03/14 21:43:29;;;;;;;9.27;6.37;;;2.70;99.90;;;;;;5057958;28;20208;-75
2022/03/14 21:52:39;;;;;;;7.57;5.60;;;3.00;99.90;;;;;;5096034;28;20199;-75
2022/03/14 21:55:06;;;;;;;8.43;5.53;;;3.10;99.90;;;;;;5095892;28;20200;-75
2022/03/14 21:57:40;;;;;;;8.30;6.43;;;3.10;99.90;;;;;;5077656;28;20196;-75
2022/03/14 22:00:25;;;;;;;9.03;6.20;;;3.00;99.90;;;;;;5079147;28;20166;-74
2022/03/14 22:03:01;;;;;;;10.80;5.90;;;3.00;99.90;;;;;;5075780;28;20253;-75
2022/03/14 22:05:27;;;;;;;12.27;6.53;;;2.70;99.90;;;;;;5076290;28;20185;-74
2022/03/14 22:08:02;;;;;;;9.50;6.37;;;2.70;99.90;;;;;;5078168;28;20291;-76
2022/03/14 22:10:28;;;;;;;11.97;6.80;;;2.70;99.90;;;;;;5090915;28;20173;-75
2022/03/14 22:12:53;;;;;;;11.90;6.57;;;2.70;99.90;;;;;;5077028;28;20242;-73
2022/03/14 22:15:19;;;;;;;10.93;6.53;;;2.80;99.90;;;;;;5057976;28;20678;-75
2022/03/14 22:17:46;;;;;;;12.07;6.53;;;2.80;99.90;;;;;;5058763;28;20194;-76
2022/03/14 22:20:14;;;;;;;9.07;5.70;;;2.90;99.90;;;;;;5065830;28;20231;-76
2022/03/14 22:22:42;;;;;;;10.87;6.20;;;2.90;99.90;;;;;;5060675;28;20181;-76
2022/03/14 22:25:08;;;;;;;10.87;6.13;;;2.90;99.90;;;;;;5058550;28;20636;-74
2022/03/14 22:27:34;;;;;;;12.33;7.03;;;2.90;99.90;;;;;;5060674;28;20203;-74
2022/03/14 22:30:00;;;;;;;11.13;6.77;;;2.90;99.90;;;;;;5084441;28;20172;-74
2022/03/14 22:32:28;;;;;;;11.03;7.07;;;2.80;99.90;;;;;;5096612;28;20205;-74
2022/03/14 22:34:55;;;;;;;11.10;7.47;;;2.60;99.90;;;;;;5077424;28;20201;-76
2022/03/14 22:37:38;;;;;;;14.43;8.80;;;2.50;99.90;;;;;;5077050;28;20200;-75
2022/03/14 22:40:05;;;;;;;14.93;9.60;;;2.20;99.90;;;;;;5095691;28;20171;-75
2022/03/14 22:42:31;;;;;;;12.30;7.03;;;2.10;99.90;;;;;;5094941;28;20191;-75
2022/03/14 22:45:01;;;;;;;12.27;7.87;;;2.00;99.90;;;;;;5075420;28;20189;-75
2022/03/14 22:47:34;;;;;;;17.20;8.20;;;1.90;99.90;;;;;;5077597;28;20230;-75
2022/03/14 22:50:01;;;;;;;14.70;9.43;;;2.10;99.90;;;;;;5076373;28;20188;-75
2022/03/14 22:52:27;;;;;;;17.20;10.20;;;2.10;99.90;;;;;;5076807;28;20180;-75
2022/03/14 22:55:10;;;;;;;15.33;9.17;;;2.20;99.90;;;;;;5094963;28;20200;-75
2022/03/14 22:57:36;;;;;;;17.73;9.90;;;2.30;99.90;;;;;;5069282;28;20200;-76
2022/03/14 23:00:04;;;;;;;32.07;25.33;;;2.20;99.90;;;;;;5076767;28;20177;-75
2022/03/14 23:05:21;;;;;;;16.13;10.47;;;2.10;99.90;;;;;;5095211;28;20659;-74
2022/03/14 23:13:19;;;;;;;12.90;9.73;;;2.10;99.90;;;;;;5074681;28;20173;-76
2022/03/14 23:15:46;;;;;;;16.10;9.47;;;2.00;99.90;;;;;;5056075;28;20209;-75
2022/03/14 23:18:17;;;;;;;10.60;7.97;;;2.00;99.90;;;;;;5056394;28;20566;-75
2022/03/14 23:20:48;;;;;;;12.17;7.70;;;2.00;99.90;;;;;;5059581;28;20173;-75
2022/03/14 23:23:16;;;;;;;9.57;7.27;;;2.00;99.90;;;;;;5076444;28;20222;-75
2022/03/14 23:25:45;;;;;;;11.07;8.23;;;1.90;99.90;;;;;;5071719;28;20177;-75
2022/03/14 23:28:11;;;;;;;11.50;7.67;;;2.00;99.90;;;;;;5055936;28;20201;-75
2022/03/14 23:30:38;;;;;;;11.70;8.57;;;2.10;99.90;;;;;;5055815;28;20227;-75
2022/03/14 23:33:04;;;;;;;15.03;11.67;;;2.10;99.90;;;;;;5056151;28;20543;-75
2022/03/14 23:35:38;;;;;;;14.63;11.43;;;2.20;99.90;;;;;;5073459;28;20205;-75
2022/03/14 23:38:06;;;;;;;14.90;10.80;;;2.30;99.90;;;;;;5073626;28;20197;-75
2022/03/14 23:40:36;;;;;;;12.00;8.93;;;2.30;99.90;;;;;;5055588;28;20192;-76
2022/03/14 23:43:03;;;;;;;15.57;12.03;;;2.30;99.90;;;;;;5073578;28;20150;-76
2022/03/14 23:46:19;;;;;;;12.67;9.80;;;2.30;99.90;;;;;;5056428;28;20173;-75
2022/03/14 23:48:59;;;;;;;25.73;17.33;;;2.40;99.90;;;;;;5056085;28;20173;-75
2022/03/14 23:51:24;;;;;;;17.47;12.30;;;2.30;99.90;;;;;;5073900;28;20187;-75
2022/03/14 23:53:50;;;;;;;15.33;10.37;;;2.30;99.90;;;;;;5056903;28;20182;-75
2022/03/14 23:56:16;;;;;;;14.00;9.87;;;2.30;99.90;;;;;;5073974;28;20201;-75
2022/03/14 23:58:45;;;;;;;12.90;9.17;;;2.30;99.90;;;;;;5072396;28;20310;-75
